createdAt,value
2018-08-22T00:00:07.724Z,54.38
2018-08-22T00:01:07.739Z,54.67
2018-08-22T00:02:07.866Z,54.55
2018-08-22T00:03:07.734Z,54.38
2018-08-22T00:04:07.782Z,54.47
2018-08-22T00:05:07.773Z,54.57
2018-08-22T00:06:07.770Z,54.28
2018-08-22T00:07:07.782Z,54.38
2018-08-22T00:08:07.815Z,54.77
2018-08-22T00:09:07.796Z,54.09
2018-08-22T00:10:07.851Z,54.38
2018-08-22T00:11:07.830Z,54.28
2018-08-22T00:12:07.838Z,54.28
2018-08-22T00:13:07.857Z,54.19
2018-08-22T00:14:07.867Z,54.38
2018-08-22T00:15:07.925Z,54.19
2018-08-22T00:16:07.860Z,54.19
2018-08-22T00:17:07.874Z,54.38
2018-08-22T00:18:07.919Z,54.38
2018-08-22T00:19:07.906Z,54.00
2018-08-22T00:20:07.943Z,54.00
2018-08-22T00:21:08.036Z,54.28
2018-08-22T00:22:07.943Z,54.19
2018-08-22T00:23:07.984Z,54.67
2018-08-22T00:24:07.981Z,54.77
2018-08-22T00:25:07.956Z,54.19
2018-08-22T00:26:08.002Z,54.74
2018-08-22T00:27:08.067Z,54.83
2018-08-22T00:28:07.982Z,54.64
2018-08-22T00:29:08.046Z,54.93
2018-08-22T00:30:08.030Z,55.41
2018-08-22T00:31:08.031Z,55.60
2018-08-22T00:32:08.034Z,55.60
2018-08-22T00:33:08.107Z,55.22
2018-08-22T00:34:08.089Z,55.32
2018-08-22T00:35:08.080Z,55.32
2018-08-22T00:36:08.086Z,55.22
2018-08-22T00:37:08.109Z,55.22
2018-08-22T00:38:08.142Z,55.12
2018-08-22T00:39:08.112Z,55.60
2018-08-22T00:40:08.150Z,55.12
2018-08-22T00:41:08.204Z,55.12
2018-08-22T00:42:08.152Z,55.69
2018-08-22T00:43:08.189Z,55.69
2018-08-22T00:44:08.216Z,55.69
2018-08-22T00:45:08.212Z,55.69
2018-08-22T00:46:08.205Z,54.93
2018-08-22T00:47:08.219Z,55.12
2018-08-22T00:48:08.260Z,55.79
2018-08-22T00:49:08.255Z,55.22
2018-08-22T00:50:08.244Z,55.22
2018-08-22T00:51:08.250Z,55.69
2018-08-22T00:52:08.254Z,55.69
2018-08-22T00:53:08.262Z,55.51
2018-08-22T00:54:08.332Z,55.69
2018-08-22T00:55:08.331Z,55.32
2018-08-22T00:56:08.309Z,55.69
2018-08-22T00:57:08.302Z,55.51
2018-08-22T00:58:08.333Z,55.41
2018-08-22T00:59:08.326Z,55.32
2018-08-22T01:00:08.378Z,56.08
2018-08-22T01:01:08.329Z,55.79
2018-08-22T01:02:08.347Z,55.69
2018-08-22T01:03:08.371Z,55.32
2018-08-22T01:04:08.365Z,55.32
2018-08-22T01:05:08.426Z,56.18
2018-08-22T01:06:08.388Z,55.79
2018-08-22T01:07:08.400Z,56.27
2018-08-22T01:08:08.448Z,56.08
2018-08-22T01:09:08.451Z,56.08
2018-08-22T01:10:08.453Z,55.69
2018-08-22T01:11:08.427Z,56.18
2018-08-22T01:12:08.447Z,56.08
2018-08-22T01:13:08.477Z,56.08
2018-08-22T01:14:08.486Z,55.32
2018-08-22T01:15:08.561Z,55.99
2018-08-22T01:16:08.485Z,55.99
2018-08-22T01:17:08.508Z,55.51
2018-08-22T01:18:08.543Z,56.18
2018-08-22T01:19:08.524Z,55.51
2018-08-22T01:20:08.564Z,55.99
2018-08-22T01:21:08.628Z,56.08
2018-08-22T01:22:08.557Z,56.27
2018-08-22T01:23:08.553Z,55.51
2018-08-22T01:24:08.589Z,56.56
2018-08-22T01:25:08.603Z,56.08
2018-08-22T01:26:08.607Z,55.99
2018-08-22T01:27:08.642Z,56.27
2018-08-22T01:28:08.636Z,56.56
2018-08-22T01:29:08.623Z,55.79
2018-08-22T01:30:08.642Z,56.27
2018-08-22T01:31:08.715Z,55.79
2018-08-22T01:32:08.814Z,56.27
2018-08-22T01:33:08.681Z,56.08
2018-08-22T01:34:08.678Z,55.89
2018-08-22T01:35:08.693Z,56.37
2018-08-22T01:36:08.738Z,56.95
2018-08-22T01:37:08.783Z,56.63
2018-08-22T01:38:08.709Z,56.63
2018-08-22T01:39:08.740Z,56.56
2018-08-22T01:40:08.759Z,56.66
2018-08-22T01:41:08.760Z,56.24
2018-08-22T01:42:08.762Z,56.66
2018-08-22T01:43:08.823Z,56.66
2018-08-22T01:44:08.775Z,56.37
2018-08-22T01:45:08.802Z,57.04
2018-08-22T01:46:08.810Z,56.95
2018-08-22T01:47:08.810Z,56.76
2018-08-22T01:48:08.870Z,56.85
2018-08-22T01:49:08.840Z,56.76
2018-08-22T01:50:08.884Z,56.56
2018-08-22T01:51:08.889Z,56.85
2018-08-22T01:52:08.883Z,56.66
2018-08-22T01:53:08.920Z,56.08
2018-08-22T01:54:08.899Z,56.56
2018-08-22T01:55:08.932Z,56.73
2018-08-22T01:56:08.914Z,57.01
2018-08-22T01:57:09.010Z,56.73
2018-08-22T01:58:09.045Z,57.01
2018-08-22T01:59:08.979Z,57.04
2018-08-22T02:00:09.000Z,56.66
2018-08-22T02:01:08.980Z,57.04
2018-08-22T02:02:08.965Z,56.66
2018-08-22T02:03:09.001Z,56.85
2018-08-22T02:04:09.013Z,56.18
2018-08-22T02:05:09.033Z,56.37
2018-08-22T02:06:09.037Z,56.76
2018-08-22T02:07:09.039Z,56.76
2018-08-22T02:08:09.040Z,56.76
2018-08-22T02:09:09.047Z,56.76
2018-08-22T02:10:09.087Z,56.85
2018-08-22T02:11:09.094Z,57.04
2018-08-22T02:12:09.081Z,56.76
2018-08-22T02:13:09.086Z,56.85
2018-08-22T02:14:09.106Z,56.46
2018-08-22T02:15:09.194Z,56.85
2018-08-22T02:16:09.135Z,57.04
2018-08-22T02:17:09.118Z,56.46
2018-08-22T02:18:09.139Z,57.04
2018-08-22T02:19:09.132Z,56.85
2018-08-22T02:20:09.179Z,56.85
2018-08-22T02:21:09.203Z,57.04
2018-08-22T02:22:09.214Z,56.27
2018-08-22T02:23:09.246Z,56.76
2018-08-22T02:24:09.204Z,56.76
2018-08-22T02:25:09.322Z,56.85
2018-08-22T02:26:09.298Z,56.76
2018-08-22T02:27:09.244Z,56.66
2018-08-22T02:28:09.352Z,56.37
2018-08-22T02:29:09.256Z,56.85
2018-08-22T02:30:09.298Z,56.37
2018-08-22T02:31:09.323Z,56.56
2018-08-22T02:32:09.296Z,56.46
2018-08-22T02:33:09.297Z,56.76
2018-08-22T02:34:09.304Z,56.85
2018-08-22T02:35:09.335Z,56.56
2018-08-22T02:36:09.349Z,56.95
2018-08-22T02:37:09.384Z,56.66
2018-08-22T02:38:09.398Z,57.04
2018-08-22T02:39:09.388Z,56.85
2018-08-22T02:40:09.409Z,56.56
2018-08-22T02:41:09.396Z,56.95
2018-08-22T02:42:09.426Z,56.66
2018-08-22T02:43:09.438Z,56.85
2018-08-22T02:44:09.425Z,56.95
2018-08-22T02:45:09.431Z,56.85
2018-08-22T02:46:09.435Z,56.95
2018-08-22T02:47:09.423Z,57.52
2018-08-22T02:48:09.507Z,56.85
2018-08-22T02:49:09.451Z,56.66
2018-08-22T02:50:09.500Z,56.85
2018-08-22T02:51:09.487Z,56.66
2018-08-22T02:52:09.570Z,56.66
2018-08-22T02:53:09.641Z,56.76
2018-08-22T02:54:09.532Z,56.66
2018-08-22T02:55:09.522Z,56.76
2018-08-22T02:56:09.542Z,56.66
2018-08-22T02:57:09.551Z,56.56
2018-08-22T02:58:09.593Z,56.56
2018-08-22T02:59:09.566Z,56.46
2018-08-22T03:00:09.556Z,56.95
2018-08-22T03:01:09.578Z,56.85
2018-08-22T03:02:09.613Z,56.76
2018-08-22T03:03:09.625Z,57.04
2018-08-22T03:04:09.661Z,57.50
2018-08-22T03:05:09.602Z,57.11
2018-08-22T03:06:09.656Z,57.88
2018-08-22T03:07:09.630Z,58.20
2018-08-22T03:08:09.652Z,57.90
2018-08-22T03:09:09.717Z,57.71
2018-08-22T03:10:09.670Z,57.62
2018-08-22T03:11:09.681Z,57.14
2018-08-22T03:12:09.693Z,57.33
2018-08-22T03:13:09.701Z,57.23
2018-08-22T03:14:09.697Z,57.43
2018-08-22T03:15:09.735Z,57.43
2018-08-22T03:16:09.716Z,57.71
2018-08-22T03:17:09.833Z,57.81
2018-08-22T03:18:09.762Z,57.78
2018-08-22T03:19:09.744Z,57.81
2018-08-22T03:20:09.795Z,57.68
2018-08-22T03:21:09.815Z,58.07
2018-08-22T03:22:09.807Z,57.78
2018-08-22T03:23:09.824Z,57.71
2018-08-22T03:24:09.868Z,57.88
2018-08-22T03:25:09.833Z,58.07
2018-08-22T03:26:09.912Z,57.90
2018-08-22T03:27:09.865Z,58.00
2018-08-22T03:28:09.851Z,57.88
2018-08-22T03:29:09.925Z,57.90
2018-08-22T03:30:09.898Z,58.45
2018-08-22T03:31:09.895Z,58.29
2018-08-22T03:32:09.902Z,58.58
2018-08-22T03:33:09.893Z,58.48
2018-08-22T03:34:09.948Z,58.87
2018-08-22T03:35:09.957Z,57.62
2018-08-22T03:36:09.939Z,57.43
2018-08-22T03:37:09.939Z,57.90
2018-08-22T03:38:09.972Z,57.43
2018-08-22T03:39:10.002Z,57.81
2018-08-22T03:40:09.978Z,57.81
2018-08-22T03:41:10.028Z,57.33
2018-08-22T03:42:10.019Z,58.00
2018-08-22T03:43:09.995Z,57.90
2018-08-22T03:44:10.006Z,57.81
2018-08-22T03:45:10.058Z,57.81
2018-08-22T03:46:10.079Z,58.00
2018-08-22T03:47:10.038Z,57.81
2018-08-22T03:48:10.051Z,57.81
2018-08-22T03:49:10.054Z,57.71
2018-08-22T03:50:10.094Z,57.71
2018-08-22T03:51:10.118Z,57.71
2018-08-22T03:52:10.080Z,58.20
2018-08-22T03:53:10.189Z,58.48
2018-08-22T03:54:10.123Z,57.71
2018-08-22T03:55:10.132Z,58.00
2018-08-22T03:56:10.143Z,58.48
2018-08-22T03:57:10.143Z,58.10
2018-08-22T03:58:10.215Z,57.81
2018-08-22T03:59:10.182Z,58.39
2018-08-22T04:00:10.202Z,58.26
2018-08-22T04:01:10.198Z,58.45
2018-08-22T04:02:10.206Z,58.45
2018-08-22T04:03:10.257Z,58.26
2018-08-22T04:04:10.272Z,58.64
2018-08-22T04:05:10.230Z,58.36
2018-08-22T04:06:10.239Z,58.74
2018-08-22T04:07:10.272Z,58.45
2018-08-22T04:08:10.255Z,58.64
2018-08-22T04:09:10.307Z,58.45
2018-08-22T04:10:10.292Z,58.84
2018-08-22T04:11:10.307Z,58.74
2018-08-22T04:12:10.324Z,58.74
2018-08-22T04:13:10.331Z,58.94
2018-08-22T04:14:10.375Z,59.32
2018-08-22T04:15:10.345Z,59.80
2018-08-22T04:16:10.339Z,59.51
2018-08-22T04:17:10.361Z,59.70
2018-08-22T04:18:10.348Z,59.61
2018-08-22T04:19:10.414Z,59.32
2018-08-22T04:20:10.388Z,59.51
2018-08-22T04:21:10.389Z,59.32
2018-08-22T04:22:10.422Z,59.61
2018-08-22T04:23:10.427Z,59.99
2018-08-22T04:24:10.435Z,60.18
2018-08-22T04:25:10.421Z,59.80
2018-08-22T04:26:10.480Z,60.28
2018-08-22T04:27:10.472Z,59.89
2018-08-22T04:28:10.493Z,60.08
2018-08-22T04:29:10.463Z,59.41
2018-08-22T04:30:10.490Z,59.32
2018-08-22T04:31:10.486Z,60.08
2018-08-22T04:32:10.541Z,60.08
2018-08-22T04:33:10.541Z,59.70
2018-08-22T04:34:10.520Z,59.80
2018-08-22T04:35:10.520Z,59.70
2018-08-22T04:36:10.536Z,59.51
2018-08-22T04:37:10.560Z,59.99
2018-08-22T04:38:10.597Z,60.08
2018-08-22T04:39:10.605Z,59.99
2018-08-22T04:40:10.592Z,60.08
2018-08-22T04:41:10.594Z,60.08
2018-08-22T04:42:10.590Z,60.28
2018-08-22T04:43:10.647Z,59.89
2018-08-22T04:44:10.682Z,59.89
2018-08-22T04:45:10.635Z,60.38
2018-08-22T04:46:10.656Z,59.99
2018-08-22T04:47:10.639Z,60.08
2018-08-22T04:48:10.686Z,59.80
2018-08-22T04:49:10.702Z,60.38
2018-08-22T04:50:10.684Z,60.28
2018-08-22T04:51:10.679Z,60.08
2018-08-22T04:52:10.706Z,59.92
2018-08-22T04:53:10.713Z,59.83
2018-08-22T04:54:10.773Z,60.11
2018-08-22T04:55:10.759Z,60.40
2018-08-22T04:56:10.731Z,59.34
2018-08-22T04:57:10.745Z,59.73
2018-08-22T04:58:10.757Z,59.54
2018-08-22T04:59:10.801Z,60.11
2018-08-22T05:00:10.822Z,59.64
2018-08-22T05:01:10.811Z,59.57
2018-08-22T05:02:10.830Z,58.99
2018-08-22T05:03:10.811Z,58.80
2018-08-22T05:04:10.819Z,58.70
2018-08-22T05:05:10.882Z,58.99
2018-08-22T05:06:10.859Z,59.57
2018-08-22T05:07:10.845Z,59.28
2018-08-22T05:08:10.856Z,60.14
2018-08-22T05:09:10.905Z,58.89
2018-08-22T05:10:10.923Z,58.80
2018-08-22T05:11:10.971Z,60.14
2018-08-22T05:12:10.925Z,58.89
2018-08-22T05:13:10.948Z,58.45
2018-08-22T05:14:10.948Z,58.25
2018-08-22T05:15:10.947Z,58.35
2018-08-22T05:16:10.971Z,58.25
2018-08-22T05:17:11.019Z,57.97
2018-08-22T05:18:10.976Z,57.87
2018-08-22T05:19:11.020Z,57.68
2018-08-22T05:20:11.049Z,57.39
2018-08-22T05:21:11.012Z,57.29
2018-08-22T05:22:11.029Z,58.18
2018-08-22T05:23:11.075Z,57.90
2018-08-22T05:24:11.049Z,56.65
2018-08-22T05:25:11.060Z,57.13
2018-08-22T05:26:11.066Z,57.22
2018-08-22T05:27:11.090Z,57.03
2018-08-22T05:28:11.163Z,56.74
2018-08-22T05:29:11.098Z,56.74
2018-08-22T05:30:11.157Z,56.74
2018-08-22T05:31:11.135Z,56.65
2018-08-22T05:32:11.120Z,56.36
2018-08-22T05:33:11.175Z,56.45
2018-08-22T05:34:11.190Z,56.00
2018-08-22T05:35:11.174Z,55.59
2018-08-22T05:36:11.180Z,56.84
2018-08-22T05:37:11.212Z,56.55
2018-08-22T05:38:11.189Z,56.36
2018-08-22T05:39:11.277Z,55.81
2018-08-22T05:40:11.234Z,56.20
2018-08-22T05:41:11.235Z,56.87
2018-08-22T05:42:11.271Z,56.38
2018-08-22T05:43:11.247Z,55.43
2018-08-22T05:44:11.291Z,55.81
2018-08-22T05:45:11.291Z,56.00
2018-08-22T05:46:11.313Z,56.29
2018-08-22T05:47:11.397Z,55.71
2018-08-22T05:48:11.303Z,55.93
2018-08-22T05:49:11.409Z,55.83
2018-08-22T05:50:11.888Z,55.83
2018-08-22T05:51:11.537Z,54.97
2018-08-22T05:52:11.376Z,54.58
2018-08-22T05:53:11.401Z,54.68
2018-08-22T05:54:11.405Z,55.26
2018-08-22T05:55:11.398Z,54.87
2018-08-22T05:56:11.426Z,54.87
2018-08-22T05:57:11.446Z,55.26
2018-08-22T05:58:11.449Z,54.97
2018-08-22T05:59:11.453Z,55.07
2018-08-22T06:00:11.478Z,54.90
2018-08-22T06:01:11.465Z,54.90
2018-08-22T06:02:11.517Z,54.61
2018-08-22T06:03:11.509Z,54.61
2018-08-22T06:04:11.530Z,54.90
2018-08-22T06:05:11.572Z,54.71
2018-08-22T06:06:11.535Z,54.22
2018-08-22T06:07:11.521Z,55.02
2018-08-22T06:08:11.561Z,54.80
2018-08-22T06:09:11.682Z,53.67
2018-08-22T06:10:11.706Z,53.58
2018-08-22T06:11:11.590Z,53.84
2018-08-22T06:12:11.666Z,54.71
2018-08-22T06:13:11.615Z,53.87
2018-08-22T06:14:11.654Z,54.16
2018-08-22T06:15:11.633Z,53.39
2018-08-22T06:16:11.628Z,54.93
2018-08-22T06:17:11.711Z,54.06
2018-08-22T06:18:11.675Z,53.48
2018-08-22T06:19:11.748Z,53.39
2018-08-22T06:20:11.773Z,53.67
2018-08-22T06:21:11.721Z,53.67
2018-08-22T06:22:11.728Z,53.00
2018-08-22T06:23:11.714Z,53.58
2018-08-22T06:24:11.768Z,53.67
2018-08-22T06:25:11.770Z,53.58
2018-08-22T06:26:11.794Z,54.54
2018-08-22T06:27:11.803Z,53.19
2018-08-22T06:28:11.809Z,54.16
2018-08-22T06:29:11.817Z,53.87
2018-08-22T06:30:11.834Z,53.77
2018-08-22T06:31:11.815Z,53.77
2018-08-22T06:32:11.879Z,54.47
2018-08-22T06:33:11.908Z,54.86
2018-08-22T06:34:11.852Z,54.86
2018-08-22T06:35:11.870Z,54.66
2018-08-22T06:36:11.923Z,55.05
2018-08-22T06:37:11.892Z,53.31
2018-08-22T06:38:11.944Z,53.31
2018-08-22T06:39:11.948Z,53.41
2018-08-22T06:40:11.924Z,54.76
2018-08-22T06:41:11.971Z,53.41
2018-08-22T06:42:11.976Z,52.55
2018-08-22T06:43:11.981Z,53.03
2018-08-22T06:44:12.048Z,53.61
2018-08-22T06:45:12.042Z,53.80
2018-08-22T06:46:12.021Z,53.61
2018-08-22T06:47:12.043Z,52.93
2018-08-22T06:48:12.107Z,53.80
2018-08-22T06:49:12.039Z,54.38
2018-08-22T06:50:12.078Z,54.76
2018-08-22T06:51:12.113Z,52.73
2018-08-22T06:52:12.106Z,52.45
2018-08-22T06:53:12.134Z,53.99
2018-08-22T06:54:12.095Z,53.70
2018-08-22T06:55:12.115Z,53.03
2018-08-22T06:56:12.172Z,52.93
2018-08-22T06:57:12.224Z,53.70
2018-08-22T06:58:12.155Z,53.31
2018-08-22T06:59:12.187Z,52.64
2018-08-22T07:00:12.187Z,53.80
2018-08-22T07:01:12.244Z,53.41
2018-08-22T07:02:12.204Z,53.41
2018-08-22T07:03:12.230Z,53.22
2018-08-22T07:04:12.216Z,52.73
2018-08-22T07:05:12.258Z,52.93
2018-08-22T07:06:12.284Z,53.25
2018-08-22T07:07:12.281Z,53.31
2018-08-22T07:08:12.318Z,53.03
2018-08-22T07:09:12.298Z,53.89
2018-08-22T07:10:12.340Z,53.25
2018-08-22T07:11:12.319Z,52.95
2018-08-22T07:12:12.326Z,52.73
2018-08-22T07:13:12.369Z,53.41
2018-08-22T07:14:12.454Z,53.70
2018-08-22T07:15:12.352Z,52.86
2018-08-22T07:16:12.382Z,52.06
2018-08-22T07:17:12.442Z,51.99
2018-08-22T07:18:12.422Z,51.87
2018-08-22T07:19:12.425Z,51.87
2018-08-22T07:20:12.436Z,52.16
2018-08-22T07:21:12.532Z,50.81
2018-08-22T07:22:12.462Z,51.48
2018-08-22T07:23:12.494Z,52.06
2018-08-22T07:24:12.488Z,53.03
2018-08-22T07:25:12.494Z,52.73
2018-08-22T07:26:12.520Z,53.51
2018-08-22T07:27:12.552Z,53.70
2018-08-22T07:28:12.536Z,53.80
2018-08-22T07:29:12.554Z,53.61
2018-08-22T07:30:12.580Z,52.73
2018-08-22T07:31:12.545Z,53.03
2018-08-22T07:32:12.601Z,52.64
2018-08-22T07:33:12.661Z,52.76
2018-08-22T07:34:12.597Z,51.87
2018-08-22T07:35:12.606Z,52.35
2018-08-22T07:36:12.638Z,52.83
2018-08-22T07:37:12.644Z,52.73
2018-08-22T07:38:12.741Z,51.99
2018-08-22T07:39:12.665Z,51.61
2018-08-22T07:40:12.685Z,51.48
2018-08-22T07:41:12.756Z,51.00
2018-08-22T07:42:12.718Z,51.68
2018-08-22T07:43:12.794Z,51.48
2018-08-22T07:44:12.703Z,50.52
2018-08-22T07:45:12.755Z,50.04
2018-08-22T07:46:12.756Z,50.71
2018-08-22T07:47:12.830Z,51.68
2018-08-22T07:48:12.764Z,51.29
2018-08-22T07:49:12.808Z,51.39
2018-08-22T07:50:12.833Z,51.68
2018-08-22T07:51:12.799Z,51.97
2018-08-22T07:52:12.811Z,52.16
2018-08-22T07:53:12.860Z,52.45
2018-08-22T07:54:12.842Z,52.16
2018-08-22T07:55:12.966Z,51.58
2018-08-22T07:56:12.877Z,51.00
2018-08-22T07:57:12.866Z,51.48
2018-08-22T07:58:12.928Z,51.58
2018-08-22T07:59:12.906Z,51.29
2018-08-22T08:00:13.011Z,50.52
2018-08-22T08:01:12.973Z,51.39
2018-08-22T08:02:12.927Z,50.90
2018-08-22T08:03:12.957Z,50.71
2018-08-22T08:04:12.960Z,50.32
2018-08-22T08:05:12.981Z,52.06
2018-08-22T08:06:13.027Z,50.81
2018-08-22T08:07:12.996Z,50.13
2018-08-22T08:08:13.017Z,50.42
2018-08-22T08:09:13.047Z,51.10
2018-08-22T08:10:13.012Z,51.68
2018-08-22T08:11:13.089Z,51.10
2018-08-22T08:12:13.077Z,51.20
2018-08-22T08:13:13.101Z,53.03
2018-08-22T08:14:13.074Z,51.68
2018-08-22T08:15:13.075Z,51.58
2018-08-22T08:16:13.158Z,50.52
2018-08-22T08:17:13.148Z,49.94
2018-08-22T08:18:13.122Z,50.13
2018-08-22T08:19:13.179Z,49.94
2018-08-22T08:20:13.142Z,49.94
2018-08-22T08:21:13.160Z,49.94
2018-08-22T08:22:13.212Z,49.37
2018-08-22T08:23:13.212Z,48.69
2018-08-22T08:24:13.230Z,48.88
2018-08-22T08:25:13.207Z,48.49
2018-08-22T08:26:13.240Z,48.40
2018-08-22T08:27:13.238Z,48.69
2018-08-22T08:28:13.236Z,48.88
2018-08-22T08:29:13.240Z,50.04
2018-08-22T08:30:13.298Z,49.84
2018-08-22T08:31:13.300Z,49.65
2018-08-22T08:32:13.285Z,49.37
2018-08-22T08:33:13.310Z,49.27
2018-08-22T08:34:13.326Z,49.55
2018-08-22T08:35:13.357Z,49.55
2018-08-22T08:36:13.401Z,49.17
2018-08-22T08:37:13.339Z,49.37
2018-08-22T08:38:13.369Z,49.00
2018-08-22T08:39:13.434Z,50.35
2018-08-22T08:40:13.415Z,49.68
2018-08-22T08:41:13.387Z,48.79
2018-08-22T08:42:13.473Z,48.61
2018-08-22T08:43:13.459Z,48.42
2018-08-22T08:44:13.450Z,50.26
2018-08-22T08:45:13.457Z,49.39
2018-08-22T08:46:13.460Z,49.00
2018-08-22T08:47:13.473Z,48.52
2018-08-22T08:48:13.471Z,48.52
2018-08-22T08:49:13.484Z,48.23
2018-08-22T08:50:13.501Z,47.65
2018-08-22T08:51:13.537Z,48.13
2018-08-22T08:52:13.528Z,47.85
2018-08-22T08:53:13.604Z,47.65
2018-08-22T08:54:13.560Z,46.97
2018-08-22T08:55:13.565Z,47.36
2018-08-22T08:56:13.588Z,46.59
2018-08-22T08:57:13.749Z,46.97
2018-08-22T08:58:13.624Z,46.69
2018-08-22T08:59:13.669Z,46.69
2018-08-22T09:00:13.643Z,46.97
2018-08-22T09:01:13.627Z,46.49
2018-08-22T09:02:13.649Z,47.75
2018-08-22T09:03:13.756Z,47.65
2018-08-22T09:04:13.693Z,47.07
2018-08-22T09:05:13.719Z,47.58
2018-08-22T09:06:13.695Z,47.36
2018-08-22T09:07:13.735Z,46.59
2018-08-22T09:08:13.742Z,47.58
2018-08-22T09:09:13.765Z,46.81
2018-08-22T09:10:13.812Z,46.71
2018-08-22T09:11:13.751Z,46.33
2018-08-22T09:12:13.767Z,46.42
2018-08-22T09:13:13.793Z,46.51
2018-08-22T09:14:13.803Z,46.51
2018-08-22T09:15:13.855Z,46.13
2018-08-22T09:16:13.844Z,46.13
2018-08-22T09:17:13.848Z,46.61
2018-08-22T09:18:13.839Z,46.81
2018-08-22T09:19:13.867Z,47.09
2018-08-22T09:20:13.866Z,47.19
2018-08-22T09:21:13.974Z,46.81
2018-08-22T09:22:13.881Z,46.13
2018-08-22T09:23:13.932Z,46.03
2018-08-22T09:24:13.941Z,46.42
2018-08-22T09:25:13.932Z,46.90
2018-08-22T09:26:13.972Z,46.71
2018-08-22T09:27:13.970Z,45.94
2018-08-22T09:28:14.070Z,46.71
2018-08-22T09:29:14.019Z,47.31
2018-08-22T09:30:13.977Z,46.54
2018-08-22T09:31:14.005Z,46.92
2018-08-22T09:32:14.048Z,46.44
2018-08-22T09:33:14.024Z,46.44
2018-08-22T09:34:14.025Z,46.64
2018-08-22T09:35:14.052Z,47.60
2018-08-22T09:36:14.063Z,47.60
2018-08-22T09:37:14.106Z,47.31
2018-08-22T09:38:14.081Z,47.41
2018-08-22T09:39:14.097Z,46.92
2018-08-22T09:40:14.222Z,48.08
2018-08-22T09:41:14.173Z,46.92
2018-08-22T09:42:14.200Z,45.00
2018-08-22T09:43:14.209Z,45.18
2018-08-22T09:44:14.195Z,45.09
2018-08-22T09:45:14.189Z,45.48
2018-08-22T09:46:14.186Z,46.25
2018-08-22T09:47:14.250Z,46.54
2018-08-22T09:48:14.260Z,45.76
2018-08-22T09:49:14.243Z,45.96
2018-08-22T09:50:14.223Z,45.76
2018-08-22T09:51:14.295Z,45.57
2018-08-22T09:52:14.320Z,46.34
2018-08-22T09:53:14.317Z,45.79
2018-08-22T09:54:14.340Z,45.89
2018-08-22T09:55:14.312Z,45.96
2018-08-22T09:56:14.337Z,45.48
2018-08-22T09:57:14.347Z,45.98
2018-08-22T09:58:14.459Z,45.31
2018-08-22T09:59:14.388Z,46.17
2018-08-22T10:00:14.472Z,45.50
2018-08-22T10:01:14.388Z,45.69
2018-08-22T10:02:14.394Z,44.63
2018-08-22T10:03:14.396Z,44.53
2018-08-22T10:04:14.411Z,44.43
2018-08-22T10:05:14.513Z,45.01
2018-08-22T10:06:14.486Z,44.34
2018-08-22T10:07:14.490Z,43.85
2018-08-22T10:08:14.530Z,45.11
2018-08-22T10:09:14.510Z,44.43
2018-08-22T10:10:14.560Z,45.50
2018-08-22T10:11:14.524Z,45.40
2018-08-22T10:12:14.515Z,45.89
2018-08-22T10:13:14.690Z,45.21
2018-08-22T10:14:14.544Z,45.31
2018-08-22T10:15:14.581Z,45.31
2018-08-22T10:16:14.657Z,46.17
2018-08-22T10:17:14.628Z,46.75
2018-08-22T10:18:14.593Z,47.05
2018-08-22T10:19:14.612Z,46.66
2018-08-22T10:20:14.632Z,45.89
2018-08-22T10:21:14.682Z,45.31
2018-08-22T10:22:14.682Z,44.43
2018-08-22T10:23:14.694Z,44.05
2018-08-22T10:24:14.697Z,43.95
2018-08-22T10:25:14.719Z,44.24
2018-08-22T10:26:14.724Z,45.21
2018-08-22T10:27:14.795Z,44.34
2018-08-22T10:28:14.743Z,44.92
2018-08-22T10:29:14.752Z,43.37
2018-08-22T10:30:14.752Z,43.76
2018-08-22T10:31:14.763Z,42.89
2018-08-22T10:32:14.832Z,43.95
2018-08-22T10:33:14.779Z,44.05
2018-08-22T10:34:14.816Z,44.34
2018-08-22T10:35:14.993Z,45.11
2018-08-22T10:36:14.819Z,44.43
2018-08-22T10:37:14.880Z,47.43
2018-08-22T10:38:14.893Z,45.11
2018-08-22T10:39:14.854Z,43.95
2018-08-22T10:40:14.885Z,44.53
2018-08-22T10:41:14.887Z,43.37
2018-08-22T10:42:14.922Z,43.76
2018-08-22T10:43:14.952Z,43.66
2018-08-22T10:44:14.946Z,43.88
2018-08-22T10:45:14.941Z,43.66
2018-08-22T10:46:14.956Z,43.76
2018-08-22T10:47:14.997Z,44.05
2018-08-22T10:48:15.041Z,45.62
2018-08-22T10:49:14.979Z,43.57
2018-08-22T10:50:15.057Z,43.49
2018-08-22T10:51:15.046Z,43.28
2018-08-22T10:52:15.038Z,43.68
2018-08-22T10:53:15.095Z,43.57
2018-08-22T10:54:15.056Z,43.59
2018-08-22T10:55:15.184Z,43.59
2018-08-22T10:56:15.171Z,44.17
2018-08-22T10:57:15.093Z,43.30
2018-08-22T10:58:15.232Z,43.40
2018-08-22T10:59:15.217Z,44.56
2018-08-22T11:00:15.166Z,45.62
2018-08-22T11:01:15.151Z,44.46
2018-08-22T11:02:15.258Z,44.26
2018-08-22T11:03:15.270Z,42.04
2018-08-22T11:04:15.178Z,42.24
2018-08-22T11:05:15.238Z,42.33
2018-08-22T11:06:15.287Z,42.62
2018-08-22T11:07:15.273Z,42.43
2018-08-22T11:08:15.245Z,42.62
2018-08-22T11:09:15.341Z,42.33
2018-08-22T11:10:15.271Z,43.40
2018-08-22T11:11:15.301Z,42.62
2018-08-22T11:12:15.295Z,41.08
2018-08-22T11:13:15.344Z,41.27
2018-08-22T11:14:15.385Z,42.24
2018-08-22T11:15:15.357Z,41.08
2018-08-22T11:16:15.319Z,41.36
2018-08-22T11:17:15.361Z,42.33
2018-08-22T11:18:15.386Z,43.41
2018-08-22T11:19:15.445Z,42.43
2018-08-22T11:20:15.419Z,43.32
2018-08-22T11:21:15.379Z,41.87
2018-08-22T11:22:15.457Z,42.25
2018-08-22T11:23:15.412Z,42.24
2018-08-22T11:24:15.464Z,43.32
2018-08-22T11:25:15.495Z,41.66
2018-08-22T11:26:15.484Z,41.67
2018-08-22T11:27:15.447Z,43.71
2018-08-22T11:28:15.485Z,41.19
2018-08-22T11:29:15.499Z,41.39
2018-08-22T11:30:15.567Z,41.00
2018-08-22T11:31:15.516Z,39.64
2018-08-22T11:32:15.536Z,40.81
2018-08-22T11:33:15.569Z,41.39
2018-08-22T11:34:15.610Z,41.09
2018-08-22T11:35:15.629Z,40.90
2018-08-22T11:36:15.590Z,40.32
2018-08-22T11:37:15.606Z,39.74
2018-08-22T11:38:15.621Z,41.00
2018-08-22T11:39:15.633Z,40.61
2018-08-22T11:40:15.685Z,40.81
2018-08-22T11:41:15.677Z,41.09
2018-08-22T11:42:15.646Z,40.90
2018-08-22T11:43:15.709Z,40.81
2018-08-22T11:44:15.702Z,41.29
2018-08-22T11:45:15.731Z,42.07
2018-08-22T11:46:15.760Z,42.35
2018-08-22T11:47:15.742Z,42.37
2018-08-22T11:48:15.738Z,41.50
2018-08-22T11:49:15.753Z,41.02
2018-08-22T11:50:15.807Z,41.21
2018-08-22T11:51:15.851Z,40.42
2018-08-22T11:52:15.824Z,41.31
2018-08-22T11:53:15.859Z,41.50
2018-08-22T11:54:15.930Z,42.37
2018-08-22T11:55:15.847Z,41.60
2018-08-22T11:56:15.828Z,42.37
2018-08-22T11:57:15.849Z,40.92
2018-08-22T11:58:15.898Z,41.89
2018-08-22T11:59:15.921Z,42.18
2018-08-22T12:00:15.900Z,42.08
2018-08-22T12:01:15.978Z,42.66
2018-08-22T12:02:15.924Z,42.57
2018-08-22T12:03:15.999Z,41.41
2018-08-22T12:04:15.958Z,41.50
2018-08-22T12:05:16.045Z,42.28
2018-08-22T12:06:15.988Z,40.73
2018-08-22T12:07:15.992Z,40.53
2018-08-22T12:08:15.990Z,40.73
2018-08-22T12:09:16.006Z,41.41
2018-08-22T12:10:16.077Z,39.47
2018-08-22T12:11:16.035Z,39.76
2018-08-22T12:12:16.057Z,39.57
2018-08-22T12:13:16.081Z,39.47
2018-08-22T12:14:16.087Z,38.70
2018-08-22T12:15:16.123Z,39.28
2018-08-22T12:16:16.137Z,39.95
2018-08-22T12:17:16.102Z,40.83
2018-08-22T12:18:16.175Z,41.02
2018-08-22T12:19:16.202Z,40.53
2018-08-22T12:20:16.151Z,40.53
2018-08-22T12:21:16.167Z,39.57
2018-08-22T12:22:16.214Z,40.92
2018-08-22T12:23:16.330Z,41.02
2018-08-22T12:24:16.196Z,41.60
2018-08-22T12:25:16.227Z,40.73
2018-08-22T12:26:16.289Z,41.21
2018-08-22T12:27:16.314Z,41.02
2018-08-22T12:28:16.257Z,41.50
2018-08-22T12:29:16.299Z,41.11
2018-08-22T12:30:16.330Z,40.92
2018-08-22T12:31:16.408Z,40.53
2018-08-22T12:32:16.383Z,42.66
2018-08-22T12:33:16.352Z,41.31
2018-08-22T12:34:16.356Z,41.11
2018-08-22T12:35:16.364Z,41.21
2018-08-22T12:36:16.364Z,40.44
2018-08-22T12:37:16.427Z,41.21
2018-08-22T12:38:16.448Z,39.95
2018-08-22T12:39:16.441Z,39.28
2018-08-22T12:40:16.444Z,39.86
2018-08-22T12:41:16.441Z,39.76
2018-08-22T12:42:16.469Z,40.34
2018-08-22T12:43:16.545Z,40.44
2018-08-22T12:44:16.523Z,40.63
2018-08-22T12:45:16.489Z,40.73
2018-08-22T12:46:16.614Z,39.86
2018-08-22T12:47:16.524Z,39.28
2018-08-22T12:48:16.576Z,38.89
2018-08-22T12:49:16.571Z,38.02
2018-08-22T12:50:16.614Z,37.63
2018-08-22T12:51:16.611Z,38.12
2018-08-22T12:52:16.581Z,38.12